sensor_id;sensor_type;location;lat;lon;timestamp;P1;durP1;ratioP1;P2;durP2;ratioP2
18669;SDS011;9464;44.918;9.670;2022-08-23T00:00:00;1.35;;;1.25;;
18669;SDS011;9464;44.918;9.670;2022-08-23T00:02:38;1.50;;;1.40;;
18669;SDS011;9464;44.918;9.670;2022-08-23T00:05:08;1.35;;;1.20;;
18669;SDS011;9464;44.918;9.670;2022-08-23T00:07:39;1.65;;;1.20;;
18669;SDS011;9464;44.918;9.670;2022-08-23T00:10:09;1.67;;;1.45;;
18669;SDS011;9464;44.918;9.670;2022-08-23T00:12:41;4.43;;;1.25;;
18669;SDS011;9464;44.918;9.670;2022-08-23T00:15:10;1.38;;;1.27;;
18669;SDS011;9464;44.918;9.670;2022-08-23T00:17:40;1.20;;;1.10;;
18669;SDS011;9464;44.918;9.670;2022-08-23T00:20:10;1.80;;;1.30;;
18669;SDS011;9464;44.918;9.670;2022-08-23T00:22:41;1.77;;;1.40;;
18669;SDS011;9464;44.918;9.670;2022-08-23T00:25:10;1.60;;;1.50;;
18669;SDS011;9464;44.918;9.670;2022-08-23T00:27:40;1.38;;;1.10;;
18669;SDS011;9464;44.918;9.670;2022-08-23T00:30:09;1.92;;;1.15;;
18669;SDS011;9464;44.918;9.670;2022-08-23T00:32:38;1.35;;;1.17;;
18669;SDS011;9464;44.918;9.670;2022-08-23T00:35:08;2.42;;;1.63;;
18669;SDS011;9464;44.918;9.670;2022-08-23T00:37:50;2.33;;;1.50;;
18669;SDS011;9464;44.918;9.670;2022-08-23T00:40:38;1.27;;;1.20;;
18669;SDS011;9464;44.918;9.670;2022-08-23T00:43:07;1.48;;;1.20;;
18669;SDS011;9464;44.918;9.670;2022-08-23T00:45:57;1.40;;;1.20;;
18669;SDS011;9464;44.918;9.670;2022-08-23T00:48:47;1.88;;;1.30;;
18669;SDS011;9464;44.918;9.670;2022-08-23T00:51:17;1.52;;;1.42;;
18669;SDS011;9464;44.918;9.670;2022-08-23T00:53:52;2.35;;;1.30;;
18669;SDS011;9464;44.918;9.670;2022-08-23T00:56:25;1.42;;;1.33;;
18669;SDS011;9464;44.918;9.670;2022-08-23T00:58:56;1.45;;;1.35;;
18669;SDS011;9464;44.918;9.670;2022-08-23T01:01:25;1.20;;;1.10;;
18669;SDS011;9464;44.918;9.670;2022-08-23T01:03:55;1.53;;;1.30;;
18669;SDS011;9464;44.918;9.670;2022-08-23T01:06:31;1.30;;;1.20;;
18669;SDS011;9464;44.918;9.670;2022-08-23T01:09:07;1.30;;;1.20;;
18669;SDS011;9464;44.918;9.670;2022-08-23T01:11:40;2.10;;;1.20;;
18669;SDS011;9464;44.918;9.670;2022-08-23T01:14:11;1.52;;;1.23;;
18669;SDS011;9464;44.918;9.670;2022-08-23T01:16:44;2.38;;;1.08;;
18669;SDS011;9464;44.918;9.670;2022-08-23T01:19:18;1.40;;;1.30;;
18669;SDS011;9464;44.918;9.670;2022-08-23T01:21:58;2.70;;;1.40;;
18669;SDS011;9464;44.918;9.670;2022-08-23T01:24:32;1.30;;;1.20;;
18669;SDS011;9464;44.918;9.670;2022-08-23T01:27:22;1.30;;;1.20;;
18669;SDS011;9464;44.918;9.670;2022-08-23T01:29:52;1.52;;;1.30;;
18669;SDS011;9464;44.918;9.670;2022-08-23T01:32:20;1.30;;;1.20;;
18669;SDS011;9464;44.918;9.670;2022-08-23T01:34:48;1.33;;;1.23;;
18669;SDS011;9464;44.918;9.670;2022-08-23T01:37:17;1.33;;;1.23;;
18669;SDS011;9464;44.918;9.670;2022-08-23T01:39:48;2.17;;;1.27;;
18669;SDS011;9464;44.918;9.670;2022-08-23T01:42:18;1.35;;;1.25;;
18669;SDS011;9464;44.918;9.670;2022-08-23T01:44:46;1.30;;;1.20;;
18669;SDS011;9464;44.918;9.670;2022-08-23T01:47:14;1.13;;;1.02;;
18669;SDS011;9464;44.918;9.670;2022-08-23T01:49:42;1.50;;;1.40;;
18669;SDS011;9464;44.918;9.670;2022-08-23T01:52:10;3.13;;;1.50;;
18669;SDS011;9464;44.918;9.670;2022-08-23T01:54:40;1.93;;;1.30;;
18669;SDS011;9464;44.918;9.670;2022-08-23T01:57:10;1.40;;;1.30;;
18669;SDS011;9464;44.918;9.670;2022-08-23T01:59:38;1.30;;;1.20;;
18669;SDS011;9464;44.918;9.670;2022-08-23T02:02:06;1.00;;;1.00;;
18669;SDS011;9464;44.918;9.670;2022-08-23T02:04:34;1.97;;;0.97;;
18669;SDS011;9464;44.918;9.670;2022-08-23T02:07:02;1.63;;;1.23;;
18669;SDS011;9464;44.918;9.670;2022-08-23T02:09:31;8.05;;;1.27;;
18669;SDS011;9464;44.918;9.670;2022-08-23T02:11:59;1.85;;;1.50;;
18669;SDS011;9464;44.918;9.670;2022-08-23T02:14:29;1.30;;;1.20;;
18669;SDS011;9464;44.918;9.670;2022-08-23T02:16:58;1.20;;;1.17;;
18669;SDS011;9464;44.918;9.670;2022-08-23T02:19:29;1.88;;;1.10;;
18669;SDS011;9464;44.918;9.670;2022-08-23T02:21:58;2.72;;;1.25;;
18669;SDS011;9464;44.918;9.670;2022-08-23T02:24:26;1.20;;;1.10;;
18669;SDS011;9464;44.918;9.670;2022-08-23T02:26:58;4.40;;;1.38;;
18669;SDS011;9464;44.918;9.670;2022-08-23T02:29:28;1.30;;;1.20;;
18669;SDS011;9464;44.918;9.670;2022-08-23T02:31:58;4.60;;;1.50;;
18669;SDS011;9464;44.918;9.670;2022-08-23T02:34:26;2.53;;;1.60;;
18669;SDS011;9464;44.918;9.670;2022-08-23T02:36:55;2.77;;;1.70;;
18669;SDS011;9464;44.918;9.670;2022-08-23T02:39:24;1.70;;;1.50;;
18669;SDS011;9464;44.918;9.670;2022-08-23T02:41:53;1.47;;;1.37;;
18669;SDS011;9464;44.918;9.670;2022-08-23T02:44:21;1.57;;;1.27;;
18669;SDS011;9464;44.918;9.670;2022-08-23T02:46:52;1.63;;;1.53;;
18669;SDS011;9464;44.918;9.670;2022-08-23T02:49:20;1.40;;;1.30;;
18669;SDS011;9464;44.918;9.670;2022-08-23T02:51:48;2.30;;;1.60;;
18669;SDS011;9464;44.918;9.670;2022-08-23T02:54:17;1.70;;;1.60;;
18669;SDS011;9464;44.918;9.670;2022-08-23T02:56:45;1.83;;;1.40;;
18669;SDS011;9464;44.918;9.670;2022-08-23T02:59:14;1.40;;;1.30;;
18669;SDS011;9464;44.918;9.670;2022-08-23T03:01:42;1.50;;;1.30;;
18669;SDS011;9464;44.918;9.670;2022-08-23T03:04:13;1.97;;;1.40;;
18669;SDS011;9464;44.918;9.670;2022-08-23T03:06:41;2.53;;;1.30;;
18669;SDS011;9464;44.918;9.670;2022-08-23T03:09:10;1.53;;;1.27;;
18669;SDS011;9464;44.918;9.670;2022-08-23T03:11:41;1.53;;;1.20;;
18669;SDS011;9464;44.918;9.670;2022-08-23T03:14:10;3.03;;;1.30;;
18669;SDS011;9464;44.918;9.670;2022-08-23T03:16:39;1.52;;;1.40;;
18669;SDS011;9464;44.918;9.670;2022-08-23T03:19:07;1.67;;;1.30;;
18669;SDS011;9464;44.918;9.670;2022-08-23T03:21:37;2.80;;;1.60;;
18669;SDS011;9464;44.918;9.670;2022-08-23T03:24:08;2.83;;;1.50;;
18669;SDS011;9464;44.918;9.670;2022-08-23T03:26:37;1.50;;;1.40;;
18669;SDS011;9464;44.918;9.670;2022-08-23T03:29:05;1.43;;;1.30;;
18669;SDS011;9464;44.918;9.670;2022-08-23T03:31:33;1.40;;;1.30;;
18669;SDS011;9464;44.918;9.670;2022-08-23T03:34:02;4.10;;;1.40;;
18669;SDS011;9464;44.918;9.670;2022-08-23T03:36:31;2.13;;;1.50;;
18669;SDS011;9464;44.918;9.670;2022-08-23T03:39:01;1.80;;;1.48;;
18669;SDS011;9464;44.918;9.670;2022-08-23T03:41:29;2.30;;;1.30;;
18669;SDS011;9464;44.918;9.670;2022-08-23T03:43:58;1.13;;;1.00;;
18669;SDS011;9464;44.918;9.670;2022-08-23T03:46:26;4.78;;;1.30;;
18669;SDS011;9464;44.918;9.670;2022-08-23T03:48:59;1.40;;;1.23;;
18669;SDS011;9464;44.918;9.670;2022-08-23T03:51:29;3.47;;;1.40;;
18669;SDS011;9464;44.918;9.670;2022-08-23T03:53:57;2.35;;;1.63;;
18669;SDS011;9464;44.918;9.670;2022-08-23T03:56:28;4.10;;;1.40;;
18669;SDS011;9464;44.918;9.670;2022-08-23T03:58:57;1.33;;;1.20;;
18669;SDS011;9464;44.918;9.670;2022-08-23T04:01:26;1.27;;;1.17;;
18669;SDS011;9464;44.918;9.670;2022-08-23T04:03:54;1.60;;;1.20;;
18669;SDS011;9464;44.918;9.670;2022-08-23T04:06:25;1.30;;;1.20;;
18669;SDS011;9464;44.918;9.670;2022-08-23T04:08:54;1.50;;;1.40;;
18669;SDS011;9464;44.918;9.670;2022-08-23T04:11:22;1.20;;;1.10;;
18669;SDS011;9464;44.918;9.670;2022-08-23T04:13:52;1.20;;;1.07;;
18669;SDS011;9464;44.918;9.670;2022-08-23T04:16:21;1.47;;;1.37;;
18669;SDS011;9464;44.918;9.670;2022-08-23T04:18:49;1.37;;;1.27;;
18669;SDS011;9464;44.918;9.670;2022-08-23T04:21:18;1.40;;;1.30;;
18669;SDS011;9464;44.918;9.670;2022-08-23T04:23:48;4.53;;;1.80;;
18669;SDS011;9464;44.918;9.670;2022-08-23T04:26:16;1.80;;;1.40;;
18669;SDS011;9464;44.918;9.670;2022-08-23T04:28:46;2.73;;;1.40;;
18669;SDS011;9464;44.918;9.670;2022-08-23T04:31:15;2.20;;;1.40;;
18669;SDS011;9464;44.918;9.670;2022-08-23T04:33:47;2.23;;;1.50;;
18669;SDS011;9464;44.918;9.670;2022-08-23T04:36:17;1.30;;;1.20;;
18669;SDS011;9464;44.918;9.670;2022-08-23T04:38:48;1.97;;;1.50;;
18669;SDS011;9464;44.918;9.670;2022-08-23T04:41:17;3.83;;;2.50;;
18669;SDS011;9464;44.918;9.670;2022-08-23T04:44:03;2.47;;;1.90;;
18669;SDS011;9464;44.918;9.670;2022-08-23T04:46:33;5.27;;;3.80;;
18669;SDS011;9464;44.918;9.670;2022-08-23T04:49:02;3.13;;;2.50;;
18669;SDS011;9464;44.918;9.670;2022-08-23T04:51:30;4.93;;;3.70;;
18669;SDS011;9464;44.918;9.670;2022-08-23T04:53:58;6.07;;;3.80;;
18669;SDS011;9464;44.918;9.670;2022-08-23T04:56:27;2.53;;;1.93;;
18669;SDS011;9464;44.918;9.670;2022-08-23T04:58:55;2.20;;;1.90;;
18669;SDS011;9464;44.918;9.670;2022-08-23T05:01:24;3.37;;;1.50;;
18669;SDS011;9464;44.918;9.670;2022-08-23T05:03:54;1.90;;;1.70;;
18669;SDS011;9464;44.918;9.670;2022-08-23T05:06:22;1.63;;;1.53;;
18669;SDS011;9464;44.918;9.670;2022-08-23T05:08:51;1.85;;;1.40;;
18669;SDS011;9464;44.918;9.670;2022-08-23T05:11:19;1.73;;;1.60;;
18669;SDS011;9464;44.918;9.670;2022-08-23T05:13:48;2.38;;;1.40;;
18669;SDS011;9464;44.918;9.670;2022-08-23T05:16:16;1.15;;;1.10;;
18669;SDS011;9464;44.918;9.670;2022-08-23T05:18:44;2.17;;;1.42;;
18669;SDS011;9464;44.918;9.670;2022-08-23T05:21:15;1.52;;;1.30;;
18669;SDS011;9464;44.918;9.670;2022-08-23T05:23:43;1.42;;;1.27;;
18669;SDS011;9464;44.918;9.670;2022-08-23T05:26:20;1.75;;;1.48;;
18669;SDS011;9464;44.918;9.670;2022-08-23T05:28:48;1.40;;;1.23;;
18669;SDS011;9464;44.918;9.670;2022-08-23T05:31:18;1.63;;;1.50;;
18669;SDS011;9464;44.918;9.670;2022-08-23T05:33:47;1.63;;;1.40;;
18669;SDS011;9464;44.918;9.670;2022-08-23T05:36:17;1.55;;;1.40;;
18669;SDS011;9464;44.918;9.670;2022-08-23T05:38:47;2.10;;;1.08;;
18669;SDS011;9464;44.918;9.670;2022-08-23T05:41:16;1.73;;;1.35;;
18669;SDS011;9464;44.918;9.670;2022-08-23T05:43:46;1.77;;;1.33;;
18669;SDS011;9464;44.918;9.670;2022-08-23T05:46:15;1.88;;;1.48;;
18669;SDS011;9464;44.918;9.670;2022-08-23T05:48:45;1.77;;;1.52;;
18669;SDS011;9464;44.918;9.670;2022-08-23T05:51:15;1.98;;;1.77;;
18669;SDS011;9464;44.918;9.670;2022-08-23T05:53:45;2.53;;;1.67;;
18669;SDS011;9464;44.918;9.670;2022-08-23T05:56:16;2.20;;;1.30;;
18669;SDS011;9464;44.918;9.670;2022-08-23T05:58:44;2.28;;;1.48;;
18669;SDS011;9464;44.918;9.670;2022-08-23T06:01:13;1.42;;;1.33;;
18669;SDS011;9464;44.918;9.670;2022-08-23T06:03:42;2.05;;;1.10;;
18669;SDS011;9464;44.918;9.670;2022-08-23T06:06:10;1.52;;;1.30;;
18669;SDS011;9464;44.918;9.670;2022-08-23T06:08:40;1.95;;;1.50;;
18669;SDS011;9464;44.918;9.670;2022-08-23T06:11:13;3.35;;;1.45;;
18669;SDS011;9464;44.918;9.670;2022-08-23T06:13:44;2.92;;;1.30;;
18669;SDS011;9464;44.918;9.670;2022-08-23T06:16:13;2.20;;;1.70;;
18669;SDS011;9464;44.918;9.670;2022-08-23T06:18:41;1.42;;;1.33;;
18669;SDS011;9464;44.918;9.670;2022-08-23T06:21:11;1.38;;;1.23;;
18669;SDS011;9464;44.918;9.670;2022-08-23T06:23:40;2.92;;;1.30;;
18669;SDS011;9464;44.918;9.670;2022-08-23T06:26:09;1.50;;;1.30;;
18669;SDS011;9464;44.918;9.670;2022-08-23T06:28:40;4.93;;;1.40;;
18669;SDS011;9464;44.918;9.670;2022-08-23T06:31:17;1.48;;;1.38;;
18669;SDS011;9464;44.918;9.670;2022-08-23T06:34:06;1.50;;;1.40;;
18669;SDS011;9464;44.918;9.670;2022-08-23T06:36:34;1.38;;;1.20;;
18669;SDS011;9464;44.918;9.670;2022-08-23T06:39:03;4.35;;;1.40;;
18669;SDS011;9464;44.918;9.670;2022-08-23T06:41:31;3.83;;;1.10;;
18669;SDS011;9464;44.918;9.670;2022-08-23T06:44:01;1.40;;;1.30;;
18669;SDS011;9464;44.918;9.670;2022-08-23T06:46:30;1.15;;;1.10;;
18669;SDS011;9464;44.918;9.670;2022-08-23T06:48:59;1.40;;;1.30;;
18669;SDS011;9464;44.918;9.670;2022-08-23T06:51:32;1.65;;;1.55;;
18669;SDS011;9464;44.918;9.670;2022-08-23T06:54:01;3.15;;;1.50;;
18669;SDS011;9464;44.918;9.670;2022-08-23T06:56:30;1.45;;;1.27;;
18669;SDS011;9464;44.918;9.670;2022-08-23T06:58:58;2.13;;;1.40;;
18669;SDS011;9464;44.918;9.670;2022-08-23T07:01:31;2.53;;;1.60;;
18669;SDS011;9464;44.918;9.670;2022-08-23T07:04:11;1.80;;;1.42;;
18669;SDS011;9464;44.918;9.670;2022-08-23T07:06:40;4.03;;;1.30;;
18669;SDS011;9464;44.918;9.670;2022-08-23T07:09:09;2.22;;;1.45;;
18669;SDS011;9464;44.918;9.670;2022-08-23T07:11:38;3.60;;;1.65;;
18669;SDS011;9464;44.918;9.670;2022-08-23T07:14:07;2.28;;;1.90;;
18669;SDS011;9464;44.918;9.670;2022-08-23T07:16:39;3.15;;;1.42;;
18669;SDS011;9464;44.918;9.670;2022-08-23T07:19:08;3.00;;;2.40;;
18669;SDS011;9464;44.918;9.670;2022-08-23T07:21:37;4.10;;;2.65;;
18669;SDS011;9464;44.918;9.670;2022-08-23T07:24:06;2.65;;;2.42;;
18669;SDS011;9464;44.918;9.670;2022-08-23T07:26:35;2.35;;;1.90;;
18669;SDS011;9464;44.918;9.670;2022-08-23T07:29:04;3.70;;;2.53;;
18669;SDS011;9464;44.918;9.670;2022-08-23T07:31:34;2.85;;;2.22;;
18669;SDS011;9464;44.918;9.670;2022-08-23T07:34:04;3.33;;;2.88;;
18669;SDS011;9464;44.918;9.670;2022-08-23T07:36:34;3.90;;;3.00;;
18669;SDS011;9464;44.918;9.670;2022-08-23T07:39:03;4.53;;;3.20;;
18669;SDS011;9464;44.918;9.670;2022-08-23T07:41:32;3.15;;;2.60;;
18669;SDS011;9464;44.918;9.670;2022-08-23T07:44:01;4.18;;;3.33;;
18669;SDS011;9464;44.918;9.670;2022-08-23T07:46:30;4.85;;;2.85;;
18669;SDS011;9464;44.918;9.670;2022-08-23T07:48:59;4.00;;;2.88;;
18669;SDS011;9464;44.918;9.670;2022-08-23T07:51:30;5.25;;;3.35;;
18669;SDS011;9464;44.918;9.670;2022-08-23T07:53:59;3.30;;;2.67;;
18669;SDS011;9464;44.918;9.670;2022-08-23T07:56:28;3.97;;;3.05;;
18669;SDS011;9464;44.918;9.670;2022-08-23T07:58:56;4.53;;;3.30;;
18669;SDS011;9464;44.918;9.670;2022-08-23T08:01:27;3.55;;;2.78;;
18669;SDS011;9464;44.918;9.670;2022-08-23T08:03:56;10.38;;;3.15;;
18669;SDS011;9464;44.918;9.670;2022-08-23T08:06:27;4.57;;;2.47;;
18669;SDS011;9464;44.918;9.670;2022-08-23T08:08:57;4.78;;;3.00;;
18669;SDS011;9464;44.918;9.670;2022-08-23T08:11:26;2.30;;;2.10;;
18669;SDS011;9464;44.918;9.670;2022-08-23T08:14:00;4.88;;;2.85;;
18669;SDS011;9464;44.918;9.670;2022-08-23T08:16:30;4.88;;;2.78;;
18669;SDS011;9464;44.918;9.670;2022-08-23T08:18:59;6.75;;;2.60;;
18669;SDS011;9464;44.918;9.670;2022-08-23T08:21:28;3.15;;;2.70;;
18669;SDS011;9464;44.918;9.670;2022-08-23T08:23:58;3.17;;;2.50;;
18669;SDS011;9464;44.918;9.670;2022-08-23T08:26:26;3.83;;;3.42;;
18669;SDS011;9464;44.918;9.670;2022-08-23T08:28:55;5.43;;;3.47;;
18669;SDS011;9464;44.918;9.670;2022-08-23T08:31:24;6.63;;;4.18;;
18669;SDS011;9464;44.918;9.670;2022-08-23T08:33:53;5.30;;;4.00;;
18669;SDS011;9464;44.918;9.670;2022-08-23T08:36:31;6.97;;;4.40;;
18669;SDS011;9464;44.918;9.670;2022-08-23T08:39:03;6.13;;;4.32;;
18669;SDS011;9464;44.918;9.670;2022-08-23T08:41:42;8.25;;;5.07;;
18669;SDS011;9464;44.918;9.670;2022-08-23T08:44:33;5.07;;;4.53;;
18669;SDS011;9464;44.918;9.670;2022-08-23T08:47:05;8.10;;;5.38;;
18669;SDS011;9464;44.918;9.670;2022-08-23T08:49:35;8.40;;;5.72;;
18669;SDS011;9464;44.918;9.670;2022-08-23T08:52:08;6.38;;;4.55;;
18669;SDS011;9464;44.918;9.670;2022-08-23T08:54:39;6.20;;;5.00;;
18669;SDS011;9464;44.918;9.670;2022-08-23T08:57:14;6.15;;;5.50;;
18669;SDS011;9464;44.918;9.670;2022-08-23T08:59:52;6.32;;;5.43;;
18669;SDS011;9464;44.918;9.670;2022-08-23T09:02:22;7.95;;;5.47;;
18669;SDS011;9464;44.918;9.670;2022-08-23T09:05:09;6.28;;;5.50;;
18669;SDS011;9464;44.918;9.670;2022-08-23T09:07:42;7.82;;;6.28;;
18669;SDS011;9464;44.918;9.670;2022-08-23T09:10:18;7.15;;;6.30;;
18669;SDS011;9464;44.918;9.670;2022-08-23T09:12:50;8.18;;;6.15;;
18669;SDS011;9464;44.918;9.670;2022-08-23T09:15:24;9.52;;;6.43;;
18669;SDS011;9464;44.918;9.670;2022-08-23T09:17:57;15.05;;;7.40;;
18669;SDS011;9464;44.918;9.670;2022-08-23T09:20:27;11.65;;;7.68;;
18669;SDS011;9464;44.918;9.670;2022-08-23T09:23:05;9.80;;;7.43;;
18669;SDS011;9464;44.918;9.670;2022-08-23T09:25:35;10.35;;;7.60;;
18669;SDS011;9464;44.918;9.670;2022-08-23T09:28:04;10.80;;;7.57;;
18669;SDS011;9464;44.918;9.670;2022-08-23T09:30:49;8.75;;;6.93;;
18669;SDS011;9464;44.918;9.670;2022-08-23T09:33:19;7.05;;;5.88;;
18669;SDS011;9464;44.918;9.670;2022-08-23T09:36:06;9.57;;;5.50;;
18669;SDS011;9464;44.918;9.670;2022-08-23T09:38:49;7.07;;;5.65;;
18669;SDS011;9464;44.918;9.670;2022-08-23T09:41:21;6.18;;;4.18;;
18669;SDS011;9464;44.918;9.670;2022-08-23T09:43:50;7.60;;;4.20;;
18669;SDS011;9464;44.918;9.670;2022-08-23T09:46:25;6.00;;;3.88;;
18669;SDS011;9464;44.918;9.670;2022-08-23T09:48:54;6.00;;;4.20;;
18669;SDS011;9464;44.918;9.670;2022-08-23T09:51:24;6.50;;;4.40;;
18669;SDS011;9464;44.918;9.670;2022-08-23T09:54:02;4.35;;;3.63;;
18669;SDS011;9464;44.918;9.670;2022-08-23T09:56:34;5.97;;;3.05;;
18669;SDS011;9464;44.918;9.670;2022-08-23T09:59:18;5.05;;;2.72;;
18669;SDS011;9464;44.918;9.670;2022-08-23T10:01:52;4.63;;;2.25;;
18669;SDS011;9464;44.918;9.670;2022-08-23T10:04:22;2.45;;;1.90;;
18669;SDS011;9464;44.918;9.670;2022-08-23T10:06:51;2.15;;;1.92;;
18669;SDS011;9464;44.918;9.670;2022-08-23T10:09:23;3.53;;;2.13;;
18669;SDS011;9464;44.918;9.670;2022-08-23T10:11:55;4.15;;;2.13;;
18669;SDS011;9464;44.918;9.670;2022-08-23T10:14:25;5.07;;;2.45;;
18669;SDS011;9464;44.918;9.670;2022-08-23T10:16:58;3.13;;;1.58;;
18669;SDS011;9464;44.918;9.670;2022-08-23T10:19:30;2.53;;;2.08;;
18669;SDS011;9464;44.918;9.670;2022-08-23T10:22:03;2.25;;;1.83;;
18669;SDS011;9464;44.918;9.670;2022-08-23T10:24:38;2.40;;;1.50;;
18669;SDS011;9464;44.918;9.670;2022-08-23T10:27:20;1.70;;;1.42;;
18669;SDS011;9464;44.918;9.670;2022-08-23T10:30:08;3.25;;;1.40;;
18669;SDS011;9464;44.918;9.670;2022-08-23T10:32:43;5.43;;;1.50;;
18669;SDS011;9464;44.918;9.670;2022-08-23T10:35:20;2.35;;;1.38;;
18669;SDS011;9464;44.918;9.670;2022-08-23T10:37:53;1.50;;;1.40;;
18669;SDS011;9464;44.918;9.670;2022-08-23T10:40:24;1.38;;;1.27;;
18669;SDS011;9464;44.918;9.670;2022-08-23T10:42:59;2.17;;;1.30;;
18669;SDS011;9464;44.918;9.670;2022-08-23T10:45:34;2.00;;;1.30;;
18669;SDS011;9464;44.918;9.670;2022-08-23T10:48:10;2.13;;;1.20;;
18669;SDS011;9464;44.918;9.670;2022-08-23T10:50:47;1.65;;;1.35;;
18669;SDS011;9464;44.918;9.670;2022-08-23T10:53:21;1.77;;;1.35;;
18669;SDS011;9464;44.918;9.670;2022-08-23T10:55:53;2.63;;;1.20;;
18669;SDS011;9464;44.918;9.670;2022-08-23T10:58:37;2.90;;;1.60;;
18669;SDS011;9464;44.918;9.670;2022-08-23T11:01:08;2.05;;;1.50;;
18669;SDS011;9464;44.918;9.670;2022-08-23T11:03:40;3.13;;;1.70;;
18669;SDS011;9464;44.918;9.670;2022-08-23T11:09:07;2.30;;;1.73;;
18669;SDS011;9464;44.918;9.670;2022-08-23T11:11:43;2.22;;;1.45;;
18669;SDS011;9464;44.918;9.670;2022-08-23T11:14:26;1.60;;;1.50;;
18669;SDS011;9464;44.918;9.670;2022-08-23T11:16:56;1.70;;;1.60;;
18669;SDS011;9464;44.918;9.670;2022-08-23T11:19:44;3.00;;;1.52;;
18669;SDS011;9464;44.918;9.670;2022-08-23T11:22:14;1.65;;;1.55;;
18669;SDS011;9464;44.918;9.670;2022-08-23T11:24:51;1.75;;;1.60;;
18669;SDS011;9464;44.918;9.670;2022-08-23T11:27:28;2.17;;;1.60;;
18669;SDS011;9464;44.918;9.670;2022-08-23T11:29:58;2.00;;;1.70;;
18669;SDS011;9464;44.918;9.670;2022-08-23T11:32:46;1.45;;;1.25;;
18669;SDS011;9464;44.918;9.670;2022-08-23T11:38:08;2.72;;;1.70;;
18669;SDS011;9464;44.918;9.670;2022-08-23T11:40:41;1.50;;;1.40;;
18669;SDS011;9464;44.918;9.670;2022-08-23T11:43:11;1.30;;;1.20;;
18669;SDS011;9464;44.918;9.670;2022-08-23T11:45:43;4.32;;;1.55;;
18669;SDS011;9464;44.918;9.670;2022-08-23T11:48:13;1.42;;;1.33;;
18669;SDS011;9464;44.918;9.670;2022-08-23T11:53:49;2.05;;;1.80;;
18669;SDS011;9464;44.918;9.670;2022-08-23T11:56:28;2.83;;;1.40;;
18669;SDS011;9464;44.918;9.670;2022-08-23T11:59:07;2.53;;;1.65;;
18669;SDS011;9464;44.918;9.670;2022-08-23T12:01:41;2.72;;;1.48;;
18669;SDS011;9464;44.918;9.670;2022-08-23T12:04:25;1.60;;;1.40;;
18669;SDS011;9464;44.918;9.670;2022-08-23T12:06:54;1.98;;;1.30;;
18669;SDS011;9464;44.918;9.670;2022-08-23T12:15:12;1.50;;;1.20;;
18669;SDS011;9464;44.918;9.670;2022-08-23T12:17:55;2.97;;;1.40;;
18669;SDS011;9464;44.918;9.670;2022-08-23T12:20:28;1.73;;;1.48;;
18669;SDS011;9464;44.918;9.670;2022-08-23T12:23:02;1.30;;;1.20;;
18669;SDS011;9464;44.918;9.670;2022-08-23T12:25:33;2.08;;;1.80;;
18669;SDS011;9464;44.918;9.670;2022-08-23T12:28:05;2.42;;;1.42;;
18669;SDS011;9464;44.918;9.670;2022-08-23T12:30:34;3.70;;;1.65;;
18669;SDS011;9464;44.918;9.670;2022-08-23T12:33:12;1.98;;;1.40;;
18669;SDS011;9464;44.918;9.670;2022-08-23T12:35:49;2.42;;;1.67;;
18669;SDS011;9464;44.918;9.670;2022-08-23T12:38:26;2.10;;;1.30;;
18669;SDS011;9464;44.918;9.670;2022-08-23T12:41:11;2.85;;;1.30;;
18669;SDS011;9464;44.918;9.670;2022-08-23T12:43:40;3.42;;;1.65;;
18669;SDS011;9464;44.918;9.670;2022-08-23T12:46:27;1.38;;;1.27;;
18669;SDS011;9464;44.918;9.670;2022-08-23T12:48:57;1.40;;;1.30;;
18669;SDS011;9464;44.918;9.670;2022-08-23T12:51:26;1.00;;;1.00;;
18669;SDS011;9464;44.918;9.670;2022-08-23T12:53:54;1.40;;;1.30;;
18669;SDS011;9464;44.918;9.670;2022-08-23T12:56:26;3.28;;;1.30;;
18669;SDS011;9464;44.918;9.670;2022-08-23T12:58:58;4.03;;;1.20;;
18669;SDS011;9464;44.918;9.670;2022-08-23T13:01:29;1.25;;;1.15;;
18669;SDS011;9464;44.918;9.670;2022-08-23T13:04:01;1.38;;;1.23;;
18669;SDS011;9464;44.918;9.670;2022-08-23T13:06:32;1.30;;;1.20;;
18669;SDS011;9464;44.918;9.670;2022-08-23T13:09:03;1.45;;;1.35;;
18669;SDS011;9464;44.918;9.670;2022-08-23T13:11:32;1.42;;;1.30;;
18669;SDS011;9464;44.918;9.670;2022-08-23T13:16:45;3.22;;;1.42;;
18669;SDS011;9464;44.918;9.670;2022-08-23T13:19:17;1.27;;;1.15;;
18669;SDS011;9464;44.918;9.670;2022-08-23T13:21:47;1.58;;;1.40;;
18669;SDS011;9464;44.918;9.670;2022-08-23T13:24:25;2.50;;;1.45;;
18669;SDS011;9464;44.918;9.670;2022-08-23T13:27:11;1.50;;;1.10;;
18669;SDS011;9464;44.918;9.670;2022-08-23T13:29:53;1.40;;;1.30;;
18669;SDS011;9464;44.918;9.670;2022-08-23T13:32:23;3.63;;;1.90;;
18669;SDS011;9464;44.918;9.670;2022-08-23T13:34:53;1.48;;;1.38;;
18669;SDS011;9464;44.918;9.670;2022-08-23T13:37:24;1.48;;;1.38;;
18669;SDS011;9464;44.918;9.670;2022-08-23T13:39:53;1.25;;;1.10;;
18669;SDS011;9464;44.918;9.670;2022-08-23T13:42:24;2.55;;;1.40;;
18669;SDS011;9464;44.918;9.670;2022-08-23T13:44:53;1.20;;;1.10;;
18669;SDS011;9464;44.918;9.670;2022-08-23T13:47:22;1.58;;;1.48;;
18669;SDS011;9464;44.918;9.670;2022-08-23T13:49:51;1.63;;;1.20;;
18669;SDS011;9464;44.918;9.670;2022-08-23T13:52:25;1.27;;;1.17;;
18669;SDS011;9464;44.918;9.670;2022-08-23T13:55:13;1.27;;;1.17;;
18669;SDS011;9464;44.918;9.670;2022-08-23T13:57:42;1.30;;;1.20;;
18669;SDS011;9464;44.918;9.670;2022-08-23T14:00:11;1.63;;;1.40;;
18669;SDS011;9464;44.918;9.670;2022-08-23T14:02:44;1.55;;;1.40;;
18669;SDS011;9464;44.918;9.670;2022-08-23T14:05:14;2.33;;;1.45;;
18669;SDS011;9464;44.918;9.670;2022-08-23T14:07:45;3.08;;;1.30;;
18669;SDS011;9464;44.918;9.670;2022-08-23T14:10:13;1.20;;;1.13;;
18669;SDS011;9464;44.918;9.670;2022-08-23T14:12:43;1.95;;;1.40;;
18669;SDS011;9464;44.918;9.670;2022-08-23T14:15:13;1.50;;;1.30;;
18669;SDS011;9464;44.918;9.670;2022-08-23T14:17:43;1.80;;;1.40;;
18669;SDS011;9464;44.918;9.670;2022-08-23T14:20:12;3.05;;;1.40;;
18669;SDS011;9464;44.918;9.670;2022-08-23T14:23:02;1.45;;;1.33;;
18669;SDS011;9464;44.918;9.670;2022-08-23T14:25:37;2.75;;;1.35;;
18669;SDS011;9464;44.918;9.670;2022-08-23T14:28:06;2.33;;;1.60;;
18669;SDS011;9464;44.918;9.670;2022-08-23T14:30:34;2.03;;;1.33;;
18669;SDS011;9464;44.918;9.670;2022-08-23T14:33:03;1.35;;;1.25;;
18669;SDS011;9464;44.918;9.670;2022-08-23T14:35:32;2.70;;;1.52;;
18669;SDS011;9464;44.918;9.670;2022-08-23T14:38:02;4.45;;;1.60;;
18669;SDS011;9464;44.918;9.670;2022-08-23T14:40:30;1.38;;;1.17;;
18669;SDS011;9464;44.918;9.670;2022-08-23T14:42:59;4.78;;;1.67;;
18669;SDS011;9464;44.918;9.670;2022-08-23T14:45:28;1.42;;;1.30;;
18669;SDS011;9464;44.918;9.670;2022-08-23T14:47:57;2.28;;;1.30;;
18669;SDS011;9464;44.918;9.670;2022-08-23T14:50:26;1.33;;;1.23;;
18669;SDS011;9464;44.918;9.670;2022-08-23T14:52:54;1.27;;;1.17;;
18669;SDS011;9464;44.918;9.670;2022-08-23T14:55:25;1.60;;;1.30;;
18669;SDS011;9464;44.918;9.670;2022-08-23T14:57:53;2.70;;;1.60;;
18669;SDS011;9464;44.918;9.670;2022-08-23T15:00:22;2.15;;;1.50;;
18669;SDS011;9464;44.918;9.670;2022-08-23T15:02:51;1.35;;;1.10;;
18669;SDS011;9464;44.918;9.670;2022-08-23T15:05:19;1.70;;;1.27;;
18669;SDS011;9464;44.918;9.670;2022-08-23T15:07:48;1.67;;;1.25;;
18669;SDS011;9464;44.918;9.670;2022-08-23T15:10:16;1.65;;;1.40;;
18669;SDS011;9464;44.918;9.670;2022-08-23T15:13:06;1.90;;;1.30;;
18669;SDS011;9464;44.918;9.670;2022-08-23T15:15:55;4.18;;;1.20;;
18669;SDS011;9464;44.918;9.670;2022-08-23T15:18:23;1.40;;;1.30;;
18669;SDS011;9464;44.918;9.670;2022-08-23T15:20:53;2.88;;;1.40;;
18669;SDS011;9464;44.918;9.670;2022-08-23T15:23:21;3.30;;;1.60;;
18669;SDS011;9464;44.918;9.670;2022-08-23T15:25:50;2.40;;;1.20;;
18669;SDS011;9464;44.918;9.670;2022-08-23T15:28:21;2.28;;;1.50;;
18669;SDS011;9464;44.918;9.670;2022-08-23T15:30:50;3.28;;;1.45;;
18669;SDS011;9464;44.918;9.670;2022-08-23T15:33:18;3.20;;;1.60;;
18669;SDS011;9464;44.918;9.670;2022-08-23T15:35:56;2.92;;;1.52;;
18669;SDS011;9464;44.918;9.670;2022-08-23T15:38:27;2.25;;;1.20;;
18669;SDS011;9464;44.918;9.670;2022-08-23T15:40:57;1.40;;;1.30;;
18669;SDS011;9464;44.918;9.670;2022-08-23T15:43:27;1.60;;;1.48;;